Todos
Wyndham Airport (Wyndham, Western Australia) WYN Condições meteorológicas
|
Wyndham, Western Australia (WYN / YWYM)
Céu Limpo
Vento Ligeiro |
|
28 °C |
There is no TAF data available at WYN or any nearby airports.
Histórico recente de METAR WYN
| Date | Time (AWST) | Flight Rules | Wind Dir. | Speed | Type | Height AGL (ft) | Visibility | Temp (°C) | Temp (°F) | Dew Point (°C) | Dew Point (°F) | Rel. Humid. | Pressure | Density Altitude | Remarks |
|---|---|---|---|---|---|---|---|---|---|---|---|---|---|---|---|
| 09-Mai | 17:00 | n/a | 120° | 5 kt | Missing | 28° | 82° | 13° | 55° | 40% | 1012 mb | 1.610 ft | |||
| 09-Mai | 16:00 | n/a | 100° | 10 kt | Missing | 31° | 87° | 12° | 53° | 31% | 1011 mb | 1.999 ft | |||
| 09-Mai | 15:00 | n/a | 90° | 9 kt | Missing | 31° | 87° | 12° | 53° | 31% | 1011 mb | 1.999 ft | |||
| 09-Mai | 14:00 | n/a | 70° | 10 kt | Missing | 32° | 89° | 12° | 53° | 29% | 1011 mb | 2.119 ft | |||
| 09-Mai | 13:00 | n/a | 140° | 9 kt | Missing | 31° | 87° | 12° | 53° | 31% | 1012 mb | 1.970 ft | |||
| 09-Mai | 12:00 | n/a | 120° | 10 kt | Missing | 31° | 87° | 12° | 53° | 31% | 1013 mb | 1.940 ft | |||
| 09-Mai | 11:00 | n/a | 120° | 12 kt | Missing | 30° | 86° | 11° | 51° | 31% | 1013 mb | 1.820 ft | |||
| 09-Mai | 10:00 | n/a | 110° | 14 kt | Missing | 29° | 84° | 10° | 50° | 31% | 1015 mb | 1.641 ft | |||
| 09-Mai | 09:00 | n/a | 110° | 16 kt | Missing | 27° | 80° | 10° | 50° | 34% | 1015 mb | 1.401 ft | |||
| 09-Mai | 08:00 | n/a | 120° | 16 kt | Missing | 26° | 78° | 10° | 50° | 37% | 1015 mb | 1.281 ft | |||
| 09-Mai | 07:00 | n/a | 110° | 11 kt | Missing | 25° | 77° | 11° | 51° | 41% | 1015 mb | 1.161 ft | |||
| 09-Mai | 06:00 | n/a | 100° | 8 kt | Missing | 22° | 71° | 11° | 51° | 50% | 1014 mb | 831 ft | |||
| 09-Mai | 05:00 | n/a | 100° | 10 kt | Missing | 22° | 71° | 11° | 51° | 50% | 1013 mb | 860 ft | |||
| 09-Mai | 04:00 | n/a | 80° | 8 kt | Missing | 22° | 71° | 11° | 51° | 50% | 1013 mb | 860 ft | |||
| 09-Mai | 03:00 | n/a | 90° | 7 kt | Missing | 22° | 71° | 11° | 51° | 50% | 1013 mb | 860 ft | |||
| 09-Mai | 02:00 | n/a | 90° | 5 kt | Missing | 21° | 69° | 11° | 51° | 53% | 1013 mb | 740 ft | |||
| 09-Mai | 01:00 | n/a | 90° | 3 kt | Missing | 19° | 66° | 11° | 51° | 60% | 1013 mb | 500 ft | |||
| 09-Mai | 00:00 | n/a | 90° | 3 kt | Missing | 21° | 69° | 11° | 51° | 53% | 1013 mb | 740 ft | |||
| 08-Mai | 23:00 | n/a | 90° | 4 kt | Missing | 21° | 69° | 11° | 51° | 53% | 1014 mb | 711 ft | |||
| 08-Mai | 22:00 | n/a | 80° | 4 kt | Missing | 21° | 69° | 10° | 50° | 49% | 1014 mb | 711 ft | |||
| 08-Mai | 21:00 | n/a | 90° | 4 kt | Missing | 22° | 71° | 10° | 50° | 46% | 1014 mb | 831 ft | |||
| 08-Mai | 20:00 | n/a | 90° | 6 kt | Missing | 22° | 71° | 10° | 50° | 46% | 1014 mb | 831 ft | |||
| 08-Mai | 19:00 | n/a | 100° | 5 kt | Missing | 24° | 75° | 10° | 50° | 41% | 1014 mb | 1.071 ft | |||
| 08-Mai | 18:00 | n/a | 90° | 5 kt | Missing | 25° | 77° | 10° | 50° | 39% | 1013 mb | 1.220 ft |
Entrar
| Seu navegador não suporta. atualize seu navegador |
